KOGS

Ogdensburg International Airport

Ogdensburg, New York, USA
METAR KOGS 200535Z AUTO 20003KT 10SM CLR 13/11 A2992 RMK AO2 T01250114
Observed Flight Rules
Jun-20 @ 05:35 UTC (6 minutes ago) Visual Flight Rules
Wind Visibility Clouds
200° at 3 knots 10 miles
  • Clear skies
Temperatures Readings
Current 13°C / 55°F
Dewpoint 11°C / 52°F
Humidity 88%
Altimeter 29.92" Hg
Pressure 1013 hPa
Elevation 91
METAR KOGS 200535Z AUTO 20003KT 10SM CLR 13/11 A2992 RMK AO2 T01250114
Observed Flight Rules
Jun-20 @ 05:35 UTC
(6 minutes ago)
VFR
Wind Visibility
200° at 3 knots 10 miles
Clouds
  • Clear skies
Temperature Dewpoint
13°C / 55°F 11°C / 52°F
Humidity Altimeter Pressure
88% 29.92" Hg 1013 hPa